Time;durP1;ratioP1;P1;durP2;ratioP2;P2;SDS_P1;SDS_P2;PMS_P1;PMS_P2;Temp;Humidity;BMP_temperature;BMP_pressure;BME280_temperature;BME280_humidity;BME280_pressure;Samples;Min_cycle;Max_cycle;Signal;HPM_P1;HPM_P2
2021/08/22 00:00:31;;;;;;;7.45;4.75;;;20.50;99.90;;;;;;5040196;28;20068;-82
2021/08/22 00:02:57;;;;;;;7.57;5.28;;;20.50;99.90;;;;;;5021797;28;20037;-82
2021/08/22 00:05:22;;;;;;;10.48;4.63;;;20.50;99.90;;;;;;5040480;28;20026;-83
2021/08/22 00:07:48;;;;;;;7.85;4.60;;;20.50;99.90;;;;;;5038272;28;20032;-83
2021/08/22 00:10:14;;;;;;;8.65;4.40;;;20.50;99.90;;;;;;5023209;28;20482;-83
2021/08/22 00:12:40;;;;;;;7.65;4.30;;;20.60;99.90;;;;;;5023260;28;20055;-82
2021/08/22 00:15:07;;;;;;;8.45;4.80;;;20.60;99.90;;;;;;5041322;28;20041;-83
2021/08/22 00:17:33;;;;;;;6.60;4.25;;;20.60;99.90;;;;;;5051273;28;20028;-82
2021/08/22 00:19:58;;;;;;;10.32;5.28;;;20.70;99.90;;;;;;5052060;28;20093;-83
2021/08/22 00:22:24;;;;;;;11.45;5.22;;;20.70;99.90;;;;;;5039572;28;20029;-83
2021/08/22 00:24:50;;;;;;;10.80;5.82;;;20.70;99.90;;;;;;5018002;28;20503;-83
2021/08/22 00:27:15;;;;;;;8.55;5.57;;;20.60;99.90;;;;;;5037496;28;20032;-83
2021/08/22 00:29:41;;;;;;;6.78;4.45;;;20.50;99.90;;;;;;5036878;28;20034;-83
2021/08/22 00:32:07;;;;;;;7.57;4.18;;;20.30;99.90;;;;;;5038088;28;20029;-82
2021/08/22 00:34:33;;;;;;;6.95;3.58;;;20.00;99.90;;;;;;5038285;28;20041;-82
2021/08/22 00:36:59;;;;;;;10.27;3.88;;;19.60;99.90;;;;;;5037046;28;20024;-82
2021/08/22 00:39:25;;;;;;;9.73;3.75;;;19.30;99.90;;;;;;5034188;28;20034;-82
2021/08/22 00:41:51;;;;;;;9.85;3.53;;;18.80;99.90;;;;;;5035919;28;20021;-82
2021/08/22 00:44:18;;;;;;;8.60;3.28;;;18.70;99.90;;;;;;5035048;28;20497;-83
2021/08/22 00:46:45;;;;;;;5.13;2.20;;;18.40;99.90;;;;;;5034407;28;20502;-82
2021/08/22 00:49:11;;;;;;;5.20;1.83;;;18.30;99.90;;;;;;5034756;28;20025;-83
2021/08/22 00:51:40;;;;;;;4.55;1.70;;;18.10;99.90;;;;;;5036235;28;20039;-82
2021/08/22 00:54:05;;;;;;;5.55;2.08;;;18.00;99.90;;;;;;5036574;28;20025;-82
2021/08/22 00:56:32;;;;;;;4.15;1.65;;;18.00;99.90;;;;;;5016104;28;20144;-83
2021/08/22 00:59:04;;;;;;;3.85;1.58;;;17.90;99.90;;;;;;5015628;28;20052;-82
2021/08/22 01:01:32;;;;;;;7.35;1.83;;;17.80;99.90;;;;;;5025511;28;20033;-83
2021/08/22 01:04:36;;;;;;;4.15;1.80;;;17.70;99.90;;;;;;5035189;28;20489;-81
2021/08/22 01:07:23;;;;;;;4.20;1.50;;;17.70;99.90;;;;;;5036674;28;20022;-82
2021/08/22 01:09:51;;;;;;;3.95;2.05;;;17.70;99.90;;;;;;5036025;28;20044;-82
2021/08/22 01:12:32;;;;;;;5.30;2.08;;;17.80;99.90;;;;;;5028348;28;20030;-82
2021/08/22 01:15:04;;;;;;;4.88;2.28;;;17.90;99.90;;;;;;5016780;28;20029;-82
2021/08/22 01:17:39;;;;;;;4.50;2.30;;;17.90;99.90;;;;;;5016753;28;20069;-82
2021/08/22 01:20:15;;;;;;;6.40;2.35;;;18.00;99.90;;;;;;5016932;28;20054;-83
2021/08/22 01:22:41;;;;;;;5.10;2.42;;;18.10;99.90;;;;;;5017866;28;20054;-82
2021/08/22 01:25:09;;;;;;;5.03;2.30;;;18.10;99.90;;;;;;4999610;28;20433;-83
2021/08/22 01:27:38;;;;;;;4.85;2.58;;;18.10;99.90;;;;;;5015568;28;20065;-82
2021/08/22 01:30:07;;;;;;;5.13;2.22;;;18.20;99.90;;;;;;5017451;28;20028;-83
2021/08/22 01:32:43;;;;;;;5.28;2.50;;;18.20;99.90;;;;;;5017519;28;20491;-82
2021/08/22 01:35:11;;;;;;;5.97;2.53;;;18.20;99.90;;;;;;4999669;28;20033;-82
2021/08/22 01:37:39;;;;;;;5.15;2.63;;;18.20;99.90;;;;;;5016822;28;20045;-82
2021/08/22 01:40:07;;;;;;;7.10;2.40;;;18.20;99.90;;;;;;5030363;28;20064;-82
2021/08/22 01:42:34;;;;;;;4.80;2.45;;;18.20;99.90;;;;;;5026699;28;20037;-83
2021/08/22 01:45:05;;;;;;;4.72;2.15;;;18.00;99.90;;;;;;5029960;28;20030;-83
2021/08/22 01:47:31;;;;;;;5.22;2.28;;;18.00;99.90;;;;;;5015262;28;20034;-80
2021/08/22 01:49:57;;;;;;;4.85;2.30;;;17.90;99.90;;;;;;5031563;28;20093;-83
2021/08/22 01:52:23;;;;;;;4.35;2.13;;;17.80;99.90;;;;;;5036723;28;20061;-83
2021/08/22 01:54:49;;;;;;;5.28;2.28;;;17.70;99.90;;;;;;5013737;28;20034;-83
2021/08/22 01:57:15;;;;;;;3.80;2.00;;;17.80;99.90;;;;;;5029585;28;20049;-81
2021/08/22 01:59:41;;;;;;;5.88;2.13;;;17.80;99.90;;;;;;5020367;28;20025;-83
2021/08/22 02:02:06;;;;;;;5.00;1.92;;;17.80;99.90;;;;;;5019527;28;20033;-83
2021/08/22 02:04:41;;;;;;;5.43;2.20;;;17.80;99.90;;;;;;5033109;28;20033;-82
2021/08/22 02:07:15;;;;;;;4.65;1.92;;;17.90;99.90;;;;;;5032284;28;20126;-83
2021/08/22 02:09:56;;;;;;;6.68;1.90;;;17.90;99.90;;;;;;5034672;28;20031;-83
2021/08/22 02:12:22;;;;;;;5.20;1.98;;;17.80;99.90;;;;;;5034128;28;20370;-82
2021/08/22 02:15:01;;;;;;;5.75;2.10;;;17.70;99.90;;;;;;5017595;28;20392;-82
2021/08/22 02:17:32;;;;;;;5.88;2.30;;;17.60;99.90;;;;;;5036290;28;20525;-83
2021/08/22 02:19:59;;;;;;;5.03;2.03;;;17.60;99.90;;;;;;5034762;28;20564;-83
2021/08/22 02:22:25;;;;;;;5.30;2.08;;;17.50;99.90;;;;;;5036797;28;20043;-83
2021/08/22 02:24:52;;;;;;;7.50;2.75;;;17.50;99.90;;;;;;5035867;28;20030;-83
2021/08/22 02:27:18;;;;;;;7.55;1.88;;;17.50;99.90;;;;;;5035300;28;20017;-81
2021/08/22 02:29:49;;;;;;;5.50;2.00;;;17.40;99.90;;;;;;5036172;28;20028;-83
2021/08/22 02:32:16;;;;;;;5.68;1.92;;;17.50;99.90;;;;;;5039750;28;20033;-83
2021/08/22 02:34:42;;;;;;;5.63;2.08;;;17.50;99.90;;;;;;5018671;28;20125;-83
2021/08/22 02:37:08;;;;;;;4.97;2.10;;;17.50;99.90;;;;;;5020756;28;20064;-83
2021/08/22 02:39:36;;;;;;;4.88;1.80;;;17.60;99.90;;;;;;5019950;28;20038;-83
2021/08/22 02:42:02;;;;;;;7.80;2.47;;;17.60;99.90;;;;;;5019795;28;20029;-83
2021/08/22 02:44:28;;;;;;;5.47;2.10;;;17.60;99.90;;;;;;5020772;28;20030;-83
2021/08/22 02:46:53;;;;;;;4.30;1.98;;;17.70;99.90;;;;;;5020489;28;20088;-83
2021/08/22 02:49:19;;;;;;;4.25;1.70;;;17.70;99.90;;;;;;5002600;28;20026;-83
2021/08/22 02:51:44;;;;;;;5.57;2.47;;;17.70;99.90;;;;;;5010049;28;20034;-82
2021/08/22 02:54:10;;;;;;;6.03;2.35;;;17.70;99.90;;;;;;5002461;28;20040;-83
2021/08/22 02:56:36;;;;;;;5.70;2.30;;;17.70;99.90;;;;;;5020800;28;20077;-83
2021/08/22 02:59:01;;;;;;;6.00;2.25;;;17.70;99.90;;;;;;5001985;28;20022;-83
2021/08/22 03:01:27;;;;;;;4.35;1.98;;;17.70;99.90;;;;;;5029490;28;20036;-83
2021/08/22 03:03:52;;;;;;;5.50;2.03;;;17.60;99.90;;;;;;5032994;28;20023;-82
2021/08/22 03:06:18;;;;;;;4.50;2.22;;;17.70;99.90;;;;;;5020328;28;20022;-83
2021/08/22 03:08:44;;;;;;;7.20;2.22;;;17.60;99.90;;;;;;5019796;28;20025;-83
2021/08/22 03:11:09;;;;;;;5.05;2.15;;;17.60;99.90;;;;;;5020316;28;20022;-83
2021/08/22 03:13:36;;;;;;;4.85;2.28;;;17.60;99.90;;;;;;5021370;28;20030;-83
2021/08/22 03:16:01;;;;;;;4.70;2.05;;;17.60;99.90;;;;;;5002453;28;20041;-82
2021/08/22 03:18:27;;;;;;;7.00;2.35;;;17.50;99.90;;;;;;5020459;28;20026;-83
2021/08/22 03:20:52;;;;;;;4.05;1.90;;;17.40;99.90;;;;;;5024289;28;20027;-83
2021/08/22 03:23:18;;;;;;;5.57;2.30;;;17.40;99.90;;;;;;5037509;28;20033;-83
2021/08/22 03:25:44;;;;;;;5.50;2.20;;;17.40;99.90;;;;;;5039340;28;20029;-83
2021/08/22 03:28:09;;;;;;;4.70;2.28;;;17.30;99.90;;;;;;5037485;28;20112;-83
2021/08/22 03:30:35;;;;;;;4.72;1.88;;;17.40;99.90;;;;;;5005699;28;20050;-83
2021/08/22 03:33:00;;;;;;;4.38;2.10;;;17.30;99.90;;;;;;5020238;28;20041;-83
2021/08/22 03:35:26;;;;;;;4.80;2.40;;;17.40;99.90;;;;;;5019990;28;20088;-82
2021/08/22 03:37:52;;;;;;;5.03;2.60;;;17.30;99.90;;;;;;5012312;28;20040;-84
2021/08/22 03:40:17;;;;;;;4.90;2.40;;;17.30;99.90;;;;;;5039813;28;20079;-83
2021/08/22 03:42:43;;;;;;;6.13;2.60;;;17.20;99.90;;;;;;5039241;28;20032;-83
2021/08/22 03:45:09;;;;;;;6.75;2.65;;;17.30;99.90;;;;;;5034253;28;20630;-82
2021/08/22 03:47:34;;;;;;;6.55;2.90;;;17.20;99.90;;;;;;5019286;28;20061;-83
2021/08/22 03:50:00;;;;;;;5.13;2.75;;;17.20;99.90;;;;;;5001918;28;20014;-83
2021/08/22 03:52:26;;;;;;;5.45;2.85;;;17.20;99.90;;;;;;5019879;28;20029;-84
2021/08/22 03:54:51;;;;;;;6.82;3.10;;;17.20;99.90;;;;;;5033831;28;20080;-83
2021/08/22 03:57:17;;;;;;;4.97;2.72;;;17.30;99.90;;;;;;5038011;28;20018;-83
2021/08/22 03:59:42;;;;;;;5.50;2.80;;;17.30;99.90;;;;;;5038743;28;20029;-83
2021/08/22 04:02:08;;;;;;;5.63;3.00;;;17.30;99.90;;;;;;5034259;28;20405;-84
2021/08/22 04:04:33;;;;;;;5.10;2.67;;;17.30;99.90;;;;;;5037790;28;20081;-81
2021/08/22 04:06:59;;;;;;;6.78;2.60;;;17.30;99.90;;;;;;5018167;28;20163;-82
2021/08/22 04:09:25;;;;;;;6.22;2.70;;;17.40;99.90;;;;;;5035700;28;20052;-82
2021/08/22 04:11:54;;;;;;;5.00;3.00;;;17.40;99.90;;;;;;5024343;28;20061;-83
2021/08/22 04:14:20;;;;;;;4.63;2.60;;;17.50;99.90;;;;;;5015357;28;20053;-83
2021/08/22 04:16:47;;;;;;;6.43;2.95;;;17.40;99.90;;;;;;5017076;28;20034;-83
2021/08/22 04:19:13;;;;;;;5.40;2.83;;;17.50;99.90;;;;;;5001121;28;20037;-82
2021/08/22 04:21:41;;;;;;;5.68;3.22;;;17.50;99.90;;;;;;5018850;28;20068;-83
2021/08/22 04:24:07;;;;;;;6.13;2.83;;;17.30;99.90;;;;;;5019525;28;20049;-83
2021/08/22 04:26:33;;;;;;;5.85;3.03;;;17.40;99.90;;;;;;5019721;28;20025;-84
2021/08/22 04:28:59;;;;;;;6.55;3.45;;;17.40;99.90;;;;;;5030805;28;20147;-83
2021/08/22 04:31:24;;;;;;;9.25;3.17;;;17.50;99.90;;;;;;5038722;28;20032;-82
2021/08/22 04:33:50;;;;;;;6.80;2.88;;;17.50;99.90;;;;;;5038268;28;20064;-83
2021/08/22 04:36:16;;;;;;;6.55;3.45;;;17.60;99.90;;;;;;5038514;28;20128;-83
2021/08/22 04:38:41;;;;;;;6.18;2.80;;;17.50;99.90;;;;;;5038152;28;20040;-82
2021/08/22 04:41:07;;;;;;;5.78;3.17;;;17.50;99.90;;;;;;5065725;22;20040;-88
2021/08/22 04:43:32;;;;;;;6.68;3.35;;;17.40;99.90;;;;;;5064696;28;20020;-87
2021/08/22 04:45:58;;;;;;;5.68;3.35;;;17.40;99.90;;;;;;5073105;28;20024;-87
2021/08/22 04:48:24;;;;;;;4.70;3.13;;;17.30;99.90;;;;;;5076530;28;20033;-88
2021/08/22 04:50:49;;;;;;;6.35;3.58;;;17.30;99.90;;;;;;5072689;28;20017;-87
2021/08/22 04:53:15;;;;;;;6.68;2.97;;;17.30;99.90;;;;;;5079633;28;20032;-87
2021/08/22 04:55:40;;;;;;;5.00;3.03;;;17.40;99.90;;;;;;5058634;28;20039;-88
2021/08/22 04:58:06;;;;;;;7.95;3.20;;;17.50;99.90;;;;;;5046620;28;20057;-87
2021/08/22 05:00:31;;;;;;;6.60;3.65;;;17.50;99.90;;;;;;5035992;28;20044;-87
2021/08/22 05:02:57;;;;;;;7.30;3.53;;;17.50;99.90;;;;;;5035124;28;20056;-87
2021/08/22 05:05:23;;;;;;;7.25;3.22;;;17.60;99.90;;;;;;5031767;28;20075;-87
2021/08/22 05:07:48;;;;;;;7.93;3.40;;;17.60;99.90;;;;;;5015288;28;20398;-88
2021/08/22 05:10:16;;;;;;;7.07;3.53;;;17.60;99.90;;;;;;5033973;28;20022;-87
2021/08/22 05:12:41;;;;;;;5.03;3.17;;;17.70;99.90;;;;;;5015455;28;20029;-88
2021/08/22 05:15:08;;;;;;;7.38;3.45;;;17.70;99.90;;;;;;5026225;28;20025;-87
2021/08/22 05:17:33;;;;;;;5.00;2.90;;;17.80;99.90;;;;;;5046862;28;20413;-87
2021/08/22 05:19:59;;;;;;;5.68;3.55;;;17.80;99.90;;;;;;5034226;28;20025;-88
2021/08/22 05:22:24;;;;;;;6.03;3.40;;;17.80;99.90;;;;;;5034739;28;20028;-87
2021/08/22 05:24:50;;;;;;;6.47;3.45;;;17.80;99.90;;;;;;5060123;28;20427;-87
2021/08/22 05:27:16;;;;;;;5.75;3.67;;;17.80;99.90;;;;;;5073214;28;20104;-87
2021/08/22 05:29:41;;;;;;;6.90;3.50;;;17.80;99.90;;;;;;5073828;28;20017;-87
2021/08/22 05:32:07;;;;;;;6.53;3.78;;;17.80;99.90;;;;;;5073848;28;20024;-87
2021/08/22 05:34:33;;;;;;;7.47;3.50;;;17.90;99.90;;;;;;5057471;28;20087;-87
2021/08/22 05:36:58;;;;;;;6.72;3.63;;;17.90;99.90;;;;;;5052580;28;20079;-87
2021/08/22 05:39:24;;;;;;;7.57;3.85;;;17.90;99.90;;;;;;5052307;28;20481;-87
2021/08/22 05:41:50;;;;;;;6.47;3.75;;;17.90;99.90;;;;;;5043103;28;20128;-87
2021/08/22 05:44:15;;;;;;;8.95;3.97;;;18.00;99.90;;;;;;5051271;28;20040;-87
2021/08/22 05:46:41;;;;;;;6.30;3.47;;;18.00;99.90;;;;;;5034392;28;20385;-87
2021/08/22 05:49:06;;;;;;;6.30;3.97;;;17.90;99.90;;;;;;5054454;28;20055;-87
2021/08/22 05:51:32;;;;;;;8.43;3.97;;;18.00;99.90;;;;;;5071203;28;20476;-87
2021/08/22 05:53:57;;;;;;;6.85;4.32;;;18.00;99.90;;;;;;5053754;28;20029;-88
2021/08/22 05:56:23;;;;;;;7.05;3.75;;;17.90;99.90;;;;;;5069206;28;20354;-87
2021/08/22 05:58:49;;;;;;;7.40;3.30;;;17.90;99.90;;;;;;5071170;28;20035;-87
2021/08/22 06:01:14;;;;;;;6.60;3.58;;;17.90;99.90;;;;;;5053775;28;20572;-88
2021/08/22 06:03:40;;;;;;;7.03;4.20;;;18.00;99.90;;;;;;5053483;28;20021;-88
2021/08/22 06:06:07;;;;;;;5.78;3.42;;;18.00;99.90;;;;;;5075721;28;20033;-87
2021/08/22 06:08:34;;;;;;;5.93;3.70;;;18.00;99.90;;;;;;5057307;28;20032;-87
2021/08/22 06:11:00;;;;;;;6.20;3.90;;;18.10;99.90;;;;;;5057511;28;20047;-87
2021/08/22 06:13:25;;;;;;;5.82;3.42;;;18.10;99.90;;;;;;5070942;28;20017;-87
2021/08/22 06:15:51;;;;;;;7.53;3.85;;;18.10;99.90;;;;;;5037302;28;20388;-88
2021/08/22 06:18:17;;;;;;;7.97;3.83;;;18.20;99.90;;;;;;5037099;28;20086;-87
2021/08/22 06:20:46;;;;;;;7.53;3.88;;;18.20;99.90;;;;;;5038439;28;20481;-87
2021/08/22 06:23:12;;;;;;;8.27;3.72;;;18.30;99.90;;;;;;5074934;28;20492;-88
2021/08/22 06:25:37;;;;;;;7.43;3.42;;;18.20;99.90;;;;;;5057383;28;20056;-87
2021/08/22 06:28:03;;;;;;;6.10;3.30;;;18.30;99.90;;;;;;5056909;28;20036;-87
2021/08/22 06:30:29;;;;;;;6.72;3.20;;;18.40;99.90;;;;;;5056875;28;20365;-88
2021/08/22 06:32:54;;;;;;;5.75;3.38;;;18.40;99.90;;;;;;5057585;28;20093;-88
2021/08/22 06:35:20;;;;;;;5.70;3.25;;;18.40;99.90;;;;;;5057923;28;20513;-88
2021/08/22 06:37:46;;;;;;;7.82;3.30;;;18.40;99.90;;;;;;5075309;28;20040;-88
2021/08/22 06:40:12;;;;;;;6.60;3.67;;;18.40;99.90;;;;;;5056832;28;20507;-87
2021/08/22 06:42:37;;;;;;;8.13;3.22;;;18.30;99.90;;;;;;5056802;28;20070;-87
2021/08/22 06:45:03;;;;;;;5.13;3.42;;;18.40;99.90;;;;;;5056966;28;20112;-88
2021/08/22 06:47:29;;;;;;;7.30;3.33;;;18.30;99.90;;;;;;5064628;28;20020;-88
2021/08/22 06:49:55;;;;;;;6.72;3.67;;;18.30;99.90;;;;;;5066728;28;20034;-87
2021/08/22 06:52:20;;;;;;;7.03;3.20;;;18.30;99.90;;;;;;5056698;28;20115;-87
2021/08/22 06:54:46;;;;;;;6.35;3.75;;;18.30;99.90;;;;;;5054060;28;20461;-88
2021/08/22 06:57:12;;;;;;;4.93;2.92;;;18.20;99.90;;;;;;5053602;28;20054;-87
2021/08/22 06:59:38;;;;;;;7.00;3.75;;;18.30;99.90;;;;;;5054799;28;20033;-87
2021/08/22 07:02:05;;;;;;;6.75;3.10;;;18.30;99.90;;;;;;5068141;28;20037;-88
2021/08/22 07:04:30;;;;;;;6.35;3.65;;;18.30;99.90;;;;;;5047873;28;20056;-88
2021/08/22 07:06:56;;;;;;;5.65;3.05;;;18.40;99.90;;;;;;5039776;28;20108;-88
2021/08/22 07:09:22;;;;;;;5.43;3.20;;;18.60;99.90;;;;;;5046912;28;20031;-88
2021/08/22 07:11:48;;;;;;;5.25;2.97;;;18.60;99.90;;;;;;5063140;28;20029;-88
2021/08/22 07:14:13;;;;;;;5.22;3.05;;;18.60;99.90;;;;;;5039123;28;20111;-88
2021/08/22 07:16:40;;;;;;;6.57;3.45;;;18.70;99.90;;;;;;5037783;28;20057;-88
2021/08/22 07:19:06;;;;;;;6.68;2.83;;;18.70;99.90;;;;;;5037339;28;20025;-87
2021/08/22 07:21:32;;;;;;;5.82;3.33;;;18.70;99.90;;;;;;5047408;28;20159;-88
2021/08/22 07:23:58;;;;;;;5.97;3.17;;;18.70;99.90;;;;;;5057506;28;20031;-89
2021/08/22 07:26:24;;;;;;;4.85;2.85;;;18.80;99.90;;;;;;5057165;28;20016;-89
2021/08/22 07:28:49;;;;;;;8.48;3.50;;;18.70;99.90;;;;;;5053825;28;20025;-88
2021/08/22 07:31:15;;;;;;;5.47;3.45;;;18.80;99.90;;;;;;5038969;28;20024;-88
2021/08/22 07:33:41;;;;;;;5.15;2.97;;;18.70;99.90;;;;;;5056373;28;20021;-88
2021/08/22 07:36:07;;;;;;;5.20;3.00;;;18.80;99.90;;;;;;5037792;28;20047;-88
2021/08/22 07:38:33;;;;;;;5.20;2.75;;;18.80;99.90;;;;;;5040284;28;20104;-88
2021/08/22 07:40:58;;;;;;;5.38;3.00;;;18.70;99.90;;;;;;5075547;28;20033;-89
2021/08/22 07:43:24;;;;;;;7.72;4.03;;;18.90;99.90;;;;;;5057225;28;20036;-88
2021/08/22 07:45:53;;;;;;;5.32;2.65;;;18.80;99.90;;;;;;5057722;28;20583;-89
2021/08/22 07:48:18;;;;;;;7.38;3.60;;;18.90;99.90;;;;;;5056270;28;20120;-88
2021/08/22 07:50:44;;;;;;;6.25;2.95;;;19.00;99.90;;;;;;5075595;28;20032;-89
2021/08/22 07:53:09;;;;;;;5.78;3.33;;;19.10;99.90;;;;;;5075835;28;20021;-88
2021/08/22 07:55:35;;;;;;;6.57;3.28;;;19.20;99.90;;;;;;5057928;28;20024;-88
2021/08/22 07:58:01;;;;;;;9.95;3.20;;;19.20;99.90;;;;;;5047801;28;20120;-88
2021/08/22 08:00:27;;;;;;;5.68;3.30;;;19.30;99.90;;;;;;5054515;28;20028;-88
2021/08/22 08:02:52;;;;;;;6.15;2.97;;;19.30;99.90;;;;;;5074823;28;20028;-88
2021/08/22 08:05:18;;;;;;;5.30;2.97;;;19.30;99.90;;;;;;5074630;28;20016;-89
2021/08/22 08:07:44;;;;;;;6.35;3.22;;;19.30;99.90;;;;;;5055394;28;20056;-88
2021/08/22 08:10:10;;;;;;;5.75;2.88;;;19.40;99.90;;;;;;5055320;28;20041;-89
2021/08/22 08:12:36;;;;;;;5.72;3.33;;;19.40;99.90;;;;;;5038312;28;20028;-88
2021/08/22 08:15:03;;;;;;;5.00;3.00;;;19.50;99.90;;;;;;5053090;28;20028;-89
2021/08/22 08:17:28;;;;;;;5.35;2.88;;;19.60;99.90;;;;;;5075853;28;20056;-89
2021/08/22 08:19:54;;;;;;;6.10;3.45;;;19.60;99.90;;;;;;5058202;28;20032;-89
2021/08/22 08:22:19;;;;;;;6.85;3.15;;;19.90;99.90;;;;;;5053968;28;20017;-89
2021/08/22 08:24:45;;;;;;;5.85;2.80;;;19.80;99.90;;;;;;5055710;28;20025;-88
2021/08/22 08:27:11;;;;;;;7.75;3.45;;;19.90;99.90;;;;;;5037997;28;20401;-88
2021/08/22 08:29:37;;;;;;;4.82;2.85;;;20.00;99.90;;;;;;5055228;28;20064;-88
2021/08/22 08:32:02;;;;;;;7.43;3.13;;;20.20;99.90;;;;;;5038422;28;20021;-88
2021/08/22 08:34:28;;;;;;;5.72;2.65;;;20.20;99.90;;;;;;5037853;28;20493;-88
2021/08/22 08:36:54;;;;;;;5.22;3.15;;;20.30;99.90;;;;;;5038604;28;20063;-89
2021/08/22 08:39:20;;;;;;;5.85;3.20;;;20.40;99.90;;;;;;5041251;28;20457;-88
2021/08/22 08:41:45;;;;;;;7.13;3.10;;;20.50;99.90;;;;;;5037789;28;20064;-88
2021/08/22 08:44:13;;;;;;;5.10;2.80;;;20.60;99.90;;;;;;5056250;28;20040;-89
2021/08/22 08:46:44;;;;;;;5.45;3.10;;;20.60;99.90;;;;;;5056415;28;20017;-89
2021/08/22 08:49:13;;;;;;;5.35;3.38;;;20.70;99.90;;;;;;5073012;28;20025;-89
2021/08/22 08:52:00;;;;;;;10.60;2.80;;;20.70;99.90;;;;;;5057998;28;20028;-88
2021/08/22 08:54:39;;;;;;;6.22;3.03;;;20.60;99.90;;;;;;5074545;28;20460;-88
2021/08/22 08:57:05;;;;;;;6.18;3.10;;;20.80;99.90;;;;;;5071701;28;20378;-88
2021/08/22 08:59:41;;;;;;;6.03;3.15;;;20.70;99.90;;;;;;5053950;28;20116;-88
2021/08/22 09:02:06;;;;;;;4.60;2.60;;;20.70;99.90;;;;;;5058580;28;20024;-88
2021/08/22 09:04:35;;;;;;;5.78;3.20;;;20.70;99.90;;;;;;5050682;28;20118;-88
2021/08/22 09:07:10;;;;;;;5.57;3.00;;;20.90;99.90;;;;;;5038740;28;20025;-88
2021/08/22 09:10:14;;;;;;;5.20;3.00;;;20.90;99.90;;;;;;5054065;28;20154;-88
2021/08/22 09:13:17;;;;;;;6.53;3.60;;;21.10;99.90;;;;;;5041466;28;20025;-88
2021/08/22 09:16:14;;;;;;;5.80;3.08;;;21.00;99.90;;;;;;5053182;28;20029;-87
2021/08/22 09:19:17;;;;;;;5.75;3.20;;;21.00;99.90;;;;;;5054710;28;20028;-88
2021/08/22 09:21:56;;;;;;;5.15;3.05;;;20.90;99.90;;;;;;5055129;28;20029;-88
2021/08/22 09:24:30;;;;;;;6.22;3.60;;;20.90;99.90;;;;;;5040775;28;20025;-88
2021/08/22 09:27:34;;;;;;;5.05;3.10;;;21.10;99.90;;;;;;5041355;28;20082;-88
2021/08/22 09:30:18;;;;;;;6.72;3.42;;;21.10;99.90;;;;;;5076742;28;20028;-88
2021/08/22 09:33:21;;;;;;;6.28;3.05;;;21.30;99.90;;;;;;5076429;28;20507;-88
2021/08/22 09:36:08;;;;;;;4.80;2.88;;;21.60;99.90;;;;;;5077119;28;20540;-88
2021/08/22 09:39:28;;;;;;;3.95;2.33;;;21.90;99.90;;;;;;5075609;28;20020;-88
2021/08/22 09:42:31;;;;;;;5.20;2.95;;;21.90;99.90;;;;;;4956330;28;20047;-89
2021/08/22 09:45:34;;;;;;;6.15;2.85;;;21.80;99.90;;;;;;5053147;28;20021;-88
2021/08/22 09:48:33;;;;;;;9.48;3.13;;;21.80;99.90;;;;;;5054331;28;20013;-88
2021/08/22 09:51:09;;;;;;;6.40;3.30;;;21.80;99.90;;;;;;5068818;28;20021;-88
2021/08/22 09:53:53;;;;;;;5.25;3.20;;;21.70;99.90;;;;;;5055512;28;20032;-88
2021/08/22 09:56:55;;;;;;;5.15;2.90;;;21.60;99.90;;;;;;5069550;28;20120;-88
2021/08/22 09:59:37;;;;;;;5.45;3.03;;;21.70;99.90;;;;;;5072998;28;20082;-88
2021/08/22 10:02:47;;;;;;;5.60;3.40;;;21.60;99.90;;;;;;5072612;28;20025;-88
2021/08/22 10:05:37;;;;;;;6.38;3.20;;;21.60;99.90;;;;;;5034851;28;20508;-88
2021/08/22 10:08:40;;;;;;;5.50;3.05;;;21.50;99.90;;;;;;5052530;28;20021;-88
2021/08/22 10:11:10;;;;;;;4.80;2.97;;;21.50;99.90;;;;;;5034588;28;20512;-88
2021/08/22 10:13:37;;;;;;;6.25;3.63;;;21.30;99.90;;;;;;5046834;28;20503;-88
2021/08/22 10:16:03;;;;;;;5.35;3.03;;;21.30;99.90;;;;;;5054175;28;20516;-88
2021/08/22 10:18:29;;;;;;;5.85;3.03;;;21.00;99.90;;;;;;5053754;28;20107;-88
2021/08/22 10:21:02;;;;;;;6.72;2.95;;;21.00;99.90;;;;;;5053867;28;20500;-88
2021/08/22 10:23:43;;;;;;;6.15;3.30;;;21.10;99.90;;;;;;5050542;28;20516;-88
2021/08/22 10:26:50;;;;;;;6.07;3.35;;;20.90;99.90;;;;;;5034329;28;20072;-88
2021/08/22 10:29:18;;;;;;;6.88;3.28;;;21.00;99.90;;;;;;5033587;28;20021;-88
2021/08/22 10:31:52;;;;;;;6.07;3.40;;;21.00;99.90;;;;;;5051250;28;20063;-88
2021/08/22 10:34:21;;;;;;;5.88;3.60;;;21.10;99.90;;;;;;5034178;28;20029;-88
2021/08/22 10:36:48;;;;;;;6.13;3.72;;;20.80;99.90;;;;;;5052420;28;20048;-89
2021/08/22 10:39:23;;;;;;;6.35;3.70;;;20.80;99.90;;;;;;5050695;28;20025;-88
2021/08/22 10:41:52;;;;;;;6.65;3.17;;;20.70;99.90;;;;;;5034571;28;20032;-88
2021/08/22 10:44:36;;;;;;;7.78;3.40;;;20.70;99.90;;;;;;5033939;28;20028;-88
2021/08/22 10:47:40;;;;;;;7.57;3.80;;;20.80;99.90;;;;;;5054397;28;20033;-88
2021/08/22 10:50:06;;;;;;;6.47;3.22;;;20.80;99.90;;;;;;5084937;23;20060;-80
2021/08/22 10:52:34;;;;;;;5.55;3.60;;;20.80;99.90;;;;;;5096618;28;20031;-80
2021/08/22 10:55:05;;;;;;;5.97;3.75;;;20.80;99.90;;;;;;5084587;28;20399;-80
2021/08/22 10:57:43;;;;;;;6.85;3.78;;;20.80;99.90;;;;;;5100213;28;20024;-81
2021/08/22 11:00:29;;;;;;;7.32;4.00;;;20.80;99.90;;;;;;5098911;28;20028;-81
2021/08/22 11:03:01;;;;;;;7.75;3.80;;;20.90;99.90;;;;;;5060057;28;20115;-81
2021/08/22 11:05:30;;;;;;;5.72;3.40;;;21.10;99.90;;;;;;5059991;28;20501;-81
2021/08/22 11:08:10;;;;;;;6.90;3.50;;;21.20;99.90;;;;;;5094679;28;20054;-81
2021/08/22 11:10:35;;;;;;;5.28;3.28;;;21.20;99.90;;;;;;5100619;28;20026;-82
2021/08/22 11:13:01;;;;;;;5.65;3.70;;;21.40;99.90;;;;;;5062878;28;20029;-81
2021/08/22 11:15:28;;;;;;;8.93;3.70;;;21.40;99.90;;;;;;5060095;28;20031;-81
2021/08/22 11:17:56;;;;;;;7.22;3.72;;;21.30;99.90;;;;;;5058758;28;20021;-81
2021/08/22 11:20:26;;;;;;;5.72;3.75;;;21.20;99.90;;;;;;5059612;28;20029;-81
2021/08/22 11:23:16;;;;;;;6.43;4.10;;;21.20;99.90;;;;;;5060336;28;20542;-81
2021/08/22 11:26:00;;;;;;;6.23;4.27;;;21.10;99.90;;;;;;5059577;28;20401;-81
2021/08/22 11:28:26;;;;;;;9.00;4.22;;;21.00;99.90;;;;;;5060259;28;20351;-82
2021/08/22 11:30:51;;;;;;;8.55;4.15;;;21.00;99.90;;;;;;5060091;28;20056;-80
2021/08/22 11:33:17;;;;;;;9.40;3.10;;;20.80;99.90;;;;;;5058464;28;20385;-80
2021/08/22 11:35:44;;;;;;;3.67;1.95;;;20.70;99.90;;;;;;5075222;28;20441;-80
2021/08/22 11:38:13;;;;;;;2.45;1.40;;;20.60;99.90;;;;;;5087932;28;20028;-80
2021/08/22 11:40:38;;;;;;;2.35;1.10;;;20.30;99.90;;;;;;5060144;28;20040;-81
2021/08/22 11:43:06;;;;;;;1.75;0.73;;;20.10;99.90;;;;;;5061129;28;20413;-81
2021/08/22 11:45:35;;;;;;;2.33;1.00;;;19.80;99.90;;;;;;5060412;28;20021;-81
2021/08/22 11:48:06;;;;;;;2.70;1.15;;;19.70;99.90;;;;;;5057823;28;20017;-81
2021/08/22 11:50:35;;;;;;;1.95;0.77;;;19.50;99.90;;;;;;5059711;28;20052;-80
2021/08/22 11:53:04;;;;;;;2.22;0.80;;;19.50;99.90;;;;;;5059685;28;20029;-81
2021/08/22 11:55:32;;;;;;;2.63;0.85;;;19.50;99.90;;;;;;5058118;28;20044;-80
2021/08/22 11:58:13;;;;;;;3.78;1.02;;;19.40;99.90;;;;;;5073689;28;20024;-81
2021/08/22 12:00:43;;;;;;;2.42;0.93;;;19.40;99.90;;;;;;5096366;28;20028;-81
2021/08/22 12:03:16;;;;;;;4.90;1.13;;;19.40;99.90;;;;;;5078990;28;20079;-82
2021/08/22 12:06:06;;;;;;;4.05;1.40;;;19.10;99.90;;;;;;5065213;28;20079;-83
2021/08/22 12:08:32;;;;;;;3.97;1.52;;;18.90;99.90;;;;;;5057276;28;20025;-81
2021/08/22 12:11:09;;;;;;;3.40;1.20;;;18.90;99.90;;;;;;5059461;28;20361;-83
2021/08/22 12:13:40;;;;;;;3.58;1.33;;;18.90;99.90;;;;;;5064695;28;20079;-83
2021/08/22 12:16:31;;;;;;;2.90;1.37;;;18.90;99.90;;;;;;5080807;28;20001;-85
2021/08/22 12:19:26;;;;;;;3.15;1.33;;;18.90;99.90;;;;;;5078170;28;20037;-84
2021/08/22 12:21:52;;;;;;;3.38;1.48;;;18.80;99.90;;;;;;5076890;28;20033;-84
2021/08/22 12:24:29;;;;;;;2.60;1.02;;;18.80;99.90;;;;;;5059077;28;20029;-84
2021/08/22 12:27:02;;;;;;;2.53;1.08;;;18.90;99.90;;;;;;5059172;28;20032;-83
2021/08/22 12:29:32;;;;;;;2.88;1.20;;;18.90;99.90;;;;;;5059404;28;20020;-84
2021/08/22 12:32:18;;;;;;;2.72;1.13;;;18.80;99.90;;;;;;5065452;28;20481;-83
2021/08/22 12:34:45;;;;;;;2.58;1.10;;;18.70;99.90;;;;;;5079782;28;20104;-82
2021/08/22 12:37:20;;;;;;;2.50;1.00;;;18.70;99.90;;;;;;5078513;28;20035;-82
2021/08/22 12:39:59;;;;;;;3.33;1.08;;;18.60;99.90;;;;;;5078964;28;20067;-84
2021/08/22 12:42:25;;;;;;;2.38;0.98;;;18.50;99.90;;;;;;5074775;28;20040;-83
2021/08/22 12:44:51;;;;;;;3.20;1.20;;;18.50;99.90;;;;;;5058366;28;20044;-84
2021/08/22 12:47:16;;;;;;;3.78;1.10;;;18.50;99.90;;;;;;5060079;28;20021;-83
2021/08/22 12:49:42;;;;;;;3.63;0.95;;;18.50;99.90;;;;;;5058641;28;20090;-84
2021/08/22 12:52:11;;;;;;;2.70;1.02;;;18.50;99.90;;;;;;5058039;28;20142;-84
2021/08/22 12:54:37;;;;;;;2.08;0.85;;;18.60;99.90;;;;;;5058712;28;20047;-84
2021/08/22 12:57:04;;;;;;;2.63;1.00;;;18.50;99.90;;;;;;5058158;28;20029;-83
2021/08/22 12:59:29;;;;;;;3.08;1.20;;;18.50;99.90;;;;;;5064810;28;20024;-83